sensor_id;sensor_type;location;lat;lon;timestamp;pressure;altitude;pressure_sealevel;temperature;humidity
59493;BME280;45497;43.996;22.876;2023-07-22T00:02:16;100909.66;;;24.15;60.04
59493;BME280;45497;43.996;22.876;2023-07-22T00:04:42;100911.88;;;24.23;59.36
59493;BME280;45497;43.996;22.876;2023-07-22T00:07:07;100918.34;;;24.17;59.54
59493;BME280;45497;43.996;22.876;2023-07-22T00:09:33;100900.59;;;24.04;59.93
59493;BME280;45497;43.996;22.876;2023-07-22T00:12:02;100879.28;;;24.13;59.68
59493;BME280;45497;43.996;22.876;2023-07-22T00:14:27;100874.25;;;24.27;59.22
59493;BME280;45497;43.996;22.876;2023-07-22T00:16:53;100851.59;;;24.38;58.53
59493;BME280;45497;43.996;22.876;2023-07-22T00:19:18;100844.97;;;24.56;57.54
59493;BME280;45497;43.996;22.876;2023-07-22T00:21:43;100862.13;;;24.67;57.54
59493;BME280;45497;43.996;22.876;2023-07-22T00:24:09;100864.81;;;24.61;57.42
59493;BME280;45497;43.996;22.876;2023-07-22T00:26:36;100847.75;;;24.66;57.49
59493;BME280;45497;43.996;22.876;2023-07-22T00:29:01;100844.03;;;24.72;57.12
59493;BME280;45497;43.996;22.876;2023-07-22T00:31:28;100823.47;;;24.82;56.93
59493;BME280;45497;43.996;22.876;2023-07-22T00:33:53;100809.94;;;24.92;56.55
59493;BME280;45497;43.996;22.876;2023-07-22T00:36:18;100825.72;;;25.00;56.19
59493;BME280;45497;43.996;22.876;2023-07-22T00:38:44;100818.38;;;24.90;56.57
59493;BME280;45497;43.996;22.876;2023-07-22T00:41:10;100815.56;;;24.75;57.02
59493;BME280;45497;43.996;22.876;2023-07-22T00:43:36;100809.84;;;24.71;57.23
59493;BME280;45497;43.996;22.876;2023-07-22T00:46:04;100811.78;;;24.76;56.85
59493;BME280;45497;43.996;22.876;2023-07-22T00:48:29;100840.13;;;24.58;57.42
59493;BME280;45497;43.996;22.876;2023-07-22T00:50:55;100840.41;;;24.56;57.49
59493;BME280;45497;43.996;22.876;2023-07-22T00:53:20;100827.94;;;24.60;57.28
59493;BME280;45497;43.996;22.876;2023-07-22T00:55:46;100835.00;;;24.61;57.13
59493;BME280;45497;43.996;22.876;2023-07-22T00:58:12;100836.81;;;24.51;57.78
59493;BME280;45497;43.996;22.876;2023-07-22T01:00:37;100831.41;;;24.23;58.48
59493;BME280;45497;43.996;22.876;2023-07-22T01:03:03;100820.56;;;24.18;58.74
59493;BME280;45497;43.996;22.876;2023-07-22T01:05:29;100830.09;;;24.26;58.38
59493;BME280;45497;43.996;22.876;2023-07-22T01:07:56;100835.63;;;24.36;57.93
59493;BME280;45497;43.996;22.876;2023-07-22T01:10:22;100840.84;;;24.48;57.69
59493;BME280;45497;43.996;22.876;2023-07-22T01:12:48;100841.13;;;24.52;57.40
59493;BME280;45497;43.996;22.876;2023-07-22T01:15:14;100843.78;;;24.47;57.58
59493;BME280;45497;43.996;22.876;2023-07-22T01:17:39;100848.41;;;24.46;57.47
59493;BME280;45497;43.996;22.876;2023-07-22T01:20:06;100844.16;;;24.55;57.48
59493;BME280;45497;43.996;22.876;2023-07-22T01:22:33;100827.13;;;24.60;57.23
59493;BME280;45497;43.996;22.876;2023-07-22T01:24:59;100814.63;;;24.54;57.57
59493;BME280;45497;43.996;22.876;2023-07-22T01:27:25;100803.16;;;24.47;57.83
59493;BME280;45497;43.996;22.876;2023-07-22T01:29:51;100803.69;;;24.49;57.96
59493;BME280;45497;43.996;22.876;2023-07-22T01:32:17;100813.72;;;24.48;57.79
59493;BME280;45497;43.996;22.876;2023-07-22T01:34:43;100838.81;;;24.66;57.11
59493;BME280;45497;43.996;22.876;2023-07-22T01:37:08;100853.78;;;24.73;56.65
59493;BME280;45497;43.996;22.876;2023-07-22T01:39:35;100843.81;;;24.84;56.27
59493;BME280;45497;43.996;22.876;2023-07-22T01:42:01;100844.09;;;24.88;56.21
59493;BME280;45497;43.996;22.876;2023-07-22T01:44:27;100843.59;;;24.91;56.16
59493;BME280;45497;43.996;22.876;2023-07-22T01:46:53;100841.38;;;24.88;56.20
59493;BME280;45497;43.996;22.876;2023-07-22T01:49:18;100829.69;;;24.82;56.48
59493;BME280;45497;43.996;22.876;2023-07-22T01:51:44;100826.19;;;24.82;56.57
59493;BME280;45497;43.996;22.876;2023-07-22T01:54:11;100849.81;;;24.91;56.20
59493;BME280;45497;43.996;22.876;2023-07-22T01:56:38;100855.25;;;24.91;56.15
59493;BME280;45497;43.996;22.876;2023-07-22T01:59:04;100849.59;;;24.98;56.17
59493;BME280;45497;43.996;22.876;2023-07-22T02:01:29;100844.47;;;25.02;55.83
59493;BME280;45497;43.996;22.876;2023-07-22T02:03:55;100838.44;;;24.94;55.68
59493;BME280;45497;43.996;22.876;2023-07-22T02:06:21;100840.66;;;24.97;55.65
59493;BME280;45497;43.996;22.876;2023-07-22T02:08:46;100840.13;;;25.06;55.35
59493;BME280;45497;43.996;22.876;2023-07-22T02:11:12;100850.19;;;25.10;55.29
59493;BME280;45497;43.996;22.876;2023-07-22T02:13:38;100842.06;;;25.10;55.24
59493;BME280;45497;43.996;22.876;2023-07-22T02:16:03;100840.16;;;25.11;55.03
59493;BME280;45497;43.996;22.876;2023-07-22T02:18:29;100849.94;;;25.17;55.03
59493;BME280;45497;43.996;22.876;2023-07-22T02:20:56;100850.50;;;25.14;55.12
59493;BME280;45497;43.996;22.876;2023-07-22T02:23:23;100863.75;;;25.15;55.20
59493;BME280;45497;43.996;22.876;2023-07-22T02:25:52;100869.75;;;25.12;54.91
59493;BME280;45497;43.996;22.876;2023-07-22T02:28:19;100883.34;;;25.17;54.94
59493;BME280;45497;43.996;22.876;2023-07-22T02:30:51;100889.31;;;25.19;54.80
59493;BME280;45497;43.996;22.876;2023-07-22T02:33:20;100885.19;;;25.17;54.95
59493;BME280;45497;43.996;22.876;2023-07-22T02:35:47;100890.59;;;25.12;54.96
59493;BME280;45497;43.996;22.876;2023-07-22T02:38:12;100894.06;;;24.97;55.80
59493;BME280;45497;43.996;22.876;2023-07-22T02:40:40;100902.19;;;24.97;55.81
59493;BME280;45497;43.996;22.876;2023-07-22T02:43:05;100900.28;;;24.92;55.89
59493;BME280;45497;43.996;22.876;2023-07-22T02:45:33;100897.81;;;24.91;55.93
59493;BME280;45497;43.996;22.876;2023-07-22T02:47:58;100903.50;;;24.89;55.77
59493;BME280;45497;43.996;22.876;2023-07-22T02:50:24;100919.78;;;24.89;55.64
59493;BME280;45497;43.996;22.876;2023-07-22T02:52:51;100927.34;;;24.87;55.69
59493;BME280;45497;43.996;22.876;2023-07-22T02:55:17;100925.13;;;24.79;55.91
59493;BME280;45497;43.996;22.876;2023-07-22T02:57:46;100934.34;;;24.78;55.98
59493;BME280;45497;43.996;22.876;2023-07-22T03:00:13;100936.09;;;24.62;56.25
59493;BME280;45497;43.996;22.876;2023-07-22T03:02:42;100946.41;;;24.60;56.35
59493;BME280;45497;43.996;22.876;2023-07-22T03:05:09;100952.88;;;24.59;56.34
59493;BME280;45497;43.996;22.876;2023-07-22T03:07:36;100955.59;;;24.59;56.23
59493;BME280;45497;43.996;22.876;2023-07-22T03:10:02;100954.91;;;24.47;56.86
59493;BME280;45497;43.996;22.876;2023-07-22T03:12:28;100957.22;;;24.33;57.24
59493;BME280;45497;43.996;22.876;2023-07-22T03:14:53;100959.56;;;24.51;56.44
59493;BME280;45497;43.996;22.876;2023-07-22T03:17:19;100963.22;;;24.62;56.21
59493;BME280;45497;43.996;22.876;2023-07-22T03:19:45;100957.00;;;24.67;55.95
59493;BME280;45497;43.996;22.876;2023-07-22T03:22:13;100952.06;;;24.58;56.15
59493;BME280;45497;43.996;22.876;2023-07-22T03:24:39;100949.97;;;24.38;56.99
59493;BME280;45497;43.996;22.876;2023-07-22T03:27:05;100944.63;;;24.21;57.62
59493;BME280;45497;43.996;22.876;2023-07-22T03:29:32;100947.16;;;24.28;57.68
59493;BME280;45497;43.996;22.876;2023-07-22T03:31:57;100954.16;;;24.24;57.86
59493;BME280;45497;43.996;22.876;2023-07-22T03:34:28;100947.19;;;24.06;58.42
59493;BME280;45497;43.996;22.876;2023-07-22T03:36:53;100940.78;;;23.90;59.02
59493;BME280;45497;43.996;22.876;2023-07-22T03:39:19;100944.94;;;23.98;58.73
59493;BME280;45497;43.996;22.876;2023-07-22T03:41:45;100928.84;;;24.13;58.07
59493;BME280;45497;43.996;22.876;2023-07-22T03:44:11;100918.72;;;24.31;57.51
59493;BME280;45497;43.996;22.876;2023-07-22T03:46:37;100926.50;;;24.49;57.34
59493;BME280;45497;43.996;22.876;2023-07-22T03:49:03;100926.81;;;24.53;57.02
59493;BME280;45497;43.996;22.876;2023-07-22T03:51:28;100924.72;;;24.60;56.87
59493;BME280;45497;43.996;22.876;2023-07-22T03:53:54;100920.75;;;24.73;56.89
59493;BME280;45497;43.996;22.876;2023-07-22T03:56:20;100908.84;;;24.79;56.71
59493;BME280;45497;43.996;22.876;2023-07-22T03:58:45;100915.41;;;24.88;56.79
59493;BME280;45497;43.996;22.876;2023-07-22T04:01:12;100910.81;;;24.89;56.70
59493;BME280;45497;43.996;22.876;2023-07-22T04:03:37;100924.13;;;24.95;56.48
59493;BME280;45497;43.996;22.876;2023-07-22T04:06:03;100936.66;;;25.02;56.23
59493;BME280;45497;43.996;22.876;2023-07-22T04:08:28;100936.75;;;25.17;54.58
59493;BME280;45497;43.996;22.876;2023-07-22T04:10:55;100936.66;;;25.39;54.32
59493;BME280;45497;43.996;22.876;2023-07-22T04:13:22;100949.75;;;25.58;54.48
59493;BME280;45497;43.996;22.876;2023-07-22T04:15:48;100963.84;;;25.54;54.56
59493;BME280;45497;43.996;22.876;2023-07-22T04:18:17;100967.44;;;25.65;54.41
59493;BME280;45497;43.996;22.876;2023-07-22T04:20:44;100966.66;;;25.75;53.80
59493;BME280;45497;43.996;22.876;2023-07-22T04:23:10;100946.03;;;25.79;53.60
59493;BME280;45497;43.996;22.876;2023-07-22T04:25:40;100951.50;;;25.84;53.23
59493;BME280;45497;43.996;22.876;2023-07-22T04:28:05;100953.94;;;25.91;53.32
59493;BME280;45497;43.996;22.876;2023-07-22T04:30:31;100958.41;;;26.07;53.07
59493;BME280;45497;43.996;22.876;2023-07-22T04:32:57;100972.00;;;26.28;52.54
59493;BME280;45497;43.996;22.876;2023-07-22T04:35:22;100986.94;;;26.30;52.79
59493;BME280;45497;43.996;22.876;2023-07-22T04:37:48;101006.44;;;26.07;52.77
59493;BME280;45497;43.996;22.876;2023-07-22T04:40:13;101017.88;;;26.04;52.72
59493;BME280;45497;43.996;22.876;2023-07-22T04:42:43;101013.34;;;25.72;53.30
59493;BME280;45497;43.996;22.876;2023-07-22T04:45:10;101007.81;;;25.51;54.06
59493;BME280;45497;43.996;22.876;2023-07-22T04:47:37;100999.63;;;25.41;54.28
59493;BME280;45497;43.996;22.876;2023-07-22T04:50:04;101013.22;;;25.46;54.26
59493;BME280;45497;43.996;22.876;2023-07-22T04:52:32;101030.84;;;25.44;54.50
59493;BME280;45497;43.996;22.876;2023-07-22T04:54:58;101044.75;;;25.20;55.09
59493;BME280;45497;43.996;22.876;2023-07-22T04:57:23;101053.94;;;24.82;56.71
59493;BME280;45497;43.996;22.876;2023-07-22T04:59:48;101059.97;;;24.61;57.48
59493;BME280;45497;43.996;22.876;2023-07-22T05:02:14;101062.38;;;24.36;58.61
59493;BME280;45497;43.996;22.876;2023-07-22T05:04:39;101025.41;;;24.52;57.92
59493;BME280;45497;43.996;22.876;2023-07-22T05:07:05;101003.69;;;24.74;57.22
59493;BME280;45497;43.996;22.876;2023-07-22T05:09:30;101001.63;;;24.86;56.68
59493;BME280;45497;43.996;22.876;2023-07-22T05:11:56;101006.09;;;24.97;56.16
59493;BME280;45497;43.996;22.876;2023-07-22T05:14:21;101014.22;;;24.97;56.46
59493;BME280;45497;43.996;22.876;2023-07-22T05:16:47;101027.50;;;24.99;56.63
59493;BME280;45497;43.996;22.876;2023-07-22T05:19:12;101034.97;;;24.82;57.32
59493;BME280;45497;43.996;22.876;2023-07-22T05:21:38;101055.50;;;24.77;57.71
59493;BME280;45497;43.996;22.876;2023-07-22T05:24:03;101065.91;;;24.86;57.28
59493;BME280;45497;43.996;22.876;2023-07-22T05:26:29;101091.34;;;24.79;57.20
59493;BME280;45497;43.996;22.876;2023-07-22T05:28:55;101079.72;;;24.84;57.39
59493;BME280;45497;43.996;22.876;2023-07-22T05:31:21;101082.63;;;24.77;57.96
59493;BME280;45497;43.996;22.876;2023-07-22T05:33:46;101061.44;;;24.52;58.99
59493;BME280;45497;43.996;22.876;2023-07-22T05:36:12;101055.41;;;24.45;59.64
59493;BME280;45497;43.996;22.876;2023-07-22T05:38:37;101047.88;;;24.47;59.69
59493;BME280;45497;43.996;22.876;2023-07-22T05:41:03;101016.63;;;24.61;59.31
59493;BME280;45497;43.996;22.876;2023-07-22T05:43:28;101037.81;;;24.70;59.29
59493;BME280;45497;43.996;22.876;2023-07-22T05:45:54;101069.22;;;24.66;59.79
59493;BME280;45497;43.996;22.876;2023-07-22T05:48:19;101020.50;;;24.49;60.13
59493;BME280;45497;43.996;22.876;2023-07-22T05:50:46;101046.97;;;24.41;60.09
59493;BME280;45497;43.996;22.876;2023-07-22T05:53:13;101048.34;;;24.17;60.15
59493;BME280;45497;43.996;22.876;2023-07-22T05:55:38;101074.53;;;23.72;61.83
59493;BME280;45497;43.996;22.876;2023-07-22T05:58:04;101033.06;;;23.50;62.26
59493;BME280;45497;43.996;22.876;2023-07-22T06:00:34;101045.22;;;23.47;62.34
59493;BME280;45497;43.996;22.876;2023-07-22T06:02:59;101052.66;;;23.57;62.35
59493;BME280;45497;43.996;22.876;2023-07-22T06:05:25;101024.03;;;23.61;61.88
59493;BME280;45497;43.996;22.876;2023-07-22T06:07:50;101002.91;;;24.02;61.15
59493;BME280;45497;43.996;22.876;2023-07-22T06:10:16;100987.66;;;24.45;60.32
59493;BME280;45497;43.996;22.876;2023-07-22T06:12:41;100986.81;;;24.67;59.67
59493;BME280;45497;43.996;22.876;2023-07-22T06:15:07;101003.19;;;24.77;59.97
59493;BME280;45497;43.996;22.876;2023-07-22T06:17:33;100987.91;;;24.98;59.44
59493;BME280;45497;43.996;22.876;2023-07-22T06:19:58;100973.41;;;25.19;58.78
59493;BME280;45497;43.996;22.876;2023-07-22T06:22:24;100963.19;;;25.27;58.47
59493;BME280;45497;43.996;22.876;2023-07-22T06:24:49;100945.88;;;25.38;58.04
59493;BME280;45497;43.996;22.876;2023-07-22T06:27:15;100923.41;;;25.53;57.76
59493;BME280;45497;43.996;22.876;2023-07-22T06:29:40;100932.69;;;25.67;56.96
59493;BME280;45497;43.996;22.876;2023-07-22T06:32:06;100931.94;;;25.87;56.75
59493;BME280;45497;43.996;22.876;2023-07-22T06:34:32;100912.72;;;25.99;56.06
59493;BME280;45497;43.996;22.876;2023-07-22T06:36:57;100899.19;;;26.15;55.65
59493;BME280;45497;43.996;22.876;2023-07-22T06:39:22;100890.47;;;26.23;54.75
59493;BME280;45497;43.996;22.876;2023-07-22T06:41:48;100894.28;;;26.47;55.38
59493;BME280;45497;43.996;22.876;2023-07-22T06:44:13;100888.06;;;26.62;55.18
59493;BME280;45497;43.996;22.876;2023-07-22T06:46:39;100879.63;;;26.69;54.02
59493;BME280;45497;43.996;22.876;2023-07-22T06:49:04;100876.88;;;26.79;53.81
59493;BME280;45497;43.996;22.876;2023-07-22T06:51:30;100871.69;;;26.93;53.09
59493;BME280;45497;43.996;22.876;2023-07-22T06:53:55;100864.31;;;27.04;52.79
59493;BME280;45497;43.996;22.876;2023-07-22T06:56:21;100886.03;;;27.19;53.21
59493;BME280;45497;43.996;22.876;2023-07-22T06:58:46;100889.28;;;27.21;51.95
59493;BME280;45497;43.996;22.876;2023-07-22T07:01:12;100889.84;;;27.34;52.13
59493;BME280;45497;43.996;22.876;2023-07-22T07:03:37;100896.56;;;27.52;51.45
59493;BME280;45497;43.996;22.876;2023-07-22T07:06:03;100885.31;;;27.63;51.27
59493;BME280;45497;43.996;22.876;2023-07-22T07:08:28;100891.25;;;27.76;50.68
59493;BME280;45497;43.996;22.876;2023-07-22T07:10:54;100892.53;;;27.89;50.82
59493;BME280;45497;43.996;22.876;2023-07-22T07:13:19;100901.88;;;28.22;50.05
59493;BME280;45497;43.996;22.876;2023-07-22T07:15:48;100908.88;;;28.33;49.05
59493;BME280;45497;43.996;22.876;2023-07-22T07:18:14;100927.38;;;28.41;48.68
59493;BME280;45497;43.996;22.876;2023-07-22T07:20:39;100920.31;;;28.70;47.04
59493;BME280;45497;43.996;22.876;2023-07-22T07:23:05;100923.81;;;28.75;45.92
59493;BME280;45497;43.996;22.876;2023-07-22T07:25:30;100927.97;;;28.97;46.21
59493;BME280;45497;43.996;22.876;2023-07-22T07:27:56;100932.91;;;29.24;45.44
59493;BME280;45497;43.996;22.876;2023-07-22T07:30:21;100931.41;;;29.37;44.75
59493;BME280;45497;43.996;22.876;2023-07-22T07:32:46;100935.75;;;29.38;43.91
59493;BME280;45497;43.996;22.876;2023-07-22T07:35:12;100931.66;;;29.60;43.91
59493;BME280;45497;43.996;22.876;2023-07-22T07:37:37;100934.41;;;29.84;43.86
59493;BME280;45497;43.996;22.876;2023-07-22T07:40:03;100930.91;;;29.97;43.34
59493;BME280;45497;43.996;22.876;2023-07-22T07:42:29;100937.25;;;30.11;43.40
59493;BME280;45497;43.996;22.876;2023-07-22T07:44:54;100947.22;;;29.83;43.91
59493;BME280;45497;43.996;22.876;2023-07-22T07:47:20;100950.09;;;29.73;44.95
59493;BME280;45497;43.996;22.876;2023-07-22T07:49:45;100942.97;;;29.72;45.54
59493;BME280;45497;43.996;22.876;2023-07-22T07:52:11;100933.84;;;29.82;45.23
59493;BME280;45497;43.996;22.876;2023-07-22T07:54:36;100931.66;;;29.84;45.13
59493;BME280;45497;43.996;22.876;2023-07-22T07:57:02;100928.47;;;29.96;45.00
59493;BME280;45497;43.996;22.876;2023-07-22T07:59:27;100932.69;;;29.64;45.00
59493;BME280;45497;43.996;22.876;2023-07-22T08:01:53;100924.50;;;29.88;45.04
59493;BME280;45497;43.996;22.876;2023-07-22T08:04:18;100914.22;;;29.80;44.23
59493;BME280;45497;43.996;22.876;2023-07-22T08:06:44;100914.44;;;30.02;44.29
59493;BME280;45497;43.996;22.876;2023-07-22T08:09:10;100919.22;;;30.10;43.99
59493;BME280;45497;43.996;22.876;2023-07-22T08:11:37;100925.97;;;29.99;44.15
59493;BME280;45497;43.996;22.876;2023-07-22T08:14:03;100908.25;;;29.97;44.55
59493;BME280;45497;43.996;22.876;2023-07-22T08:16:30;100923.59;;;30.11;44.64
59493;BME280;45497;43.996;22.876;2023-07-22T08:18:56;100922.47;;;30.31;44.85
59493;BME280;45497;43.996;22.876;2023-07-22T08:21:21;100933.28;;;29.85;45.40
59493;BME280;45497;43.996;22.876;2023-07-22T08:23:47;100929.91;;;29.69;45.78
59493;BME280;45497;43.996;22.876;2023-07-22T08:26:13;100930.25;;;29.86;45.93
59493;BME280;45497;43.996;22.876;2023-07-22T08:28:38;100925.59;;;29.87;45.57
59493;BME280;45497;43.996;22.876;2023-07-22T08:31:04;100925.00;;;30.09;45.47
59493;BME280;45497;43.996;22.876;2023-07-22T08:33:30;100929.13;;;30.06;45.60
59493;BME280;45497;43.996;22.876;2023-07-22T08:35:56;100939.97;;;30.30;45.55
59493;BME280;45497;43.996;22.876;2023-07-22T08:38:21;100942.41;;;30.32;45.37
59493;BME280;45497;43.996;22.876;2023-07-22T08:40:49;100937.81;;;29.95;46.32
59493;BME280;45497;43.996;22.876;2023-07-22T08:43:19;100930.25;;;30.05;45.95
59493;BME280;45497;43.996;22.876;2023-07-22T08:45:47;100933.13;;;30.14;45.88
59493;BME280;45497;43.996;22.876;2023-07-22T08:48:15;100939.03;;;30.21;45.35
59493;BME280;45497;43.996;22.876;2023-07-22T08:50:50;100932.75;;;30.21;44.94
59493;BME280;45497;43.996;22.876;2023-07-22T08:53:18;100934.53;;;30.11;44.83
59493;BME280;45497;43.996;22.876;2023-07-22T08:55:47;100943.84;;;29.91;45.25
59493;BME280;45497;43.996;22.876;2023-07-22T08:58:15;100934.75;;;29.77;45.56
59493;BME280;45497;43.996;22.876;2023-07-22T09:00:42;100943.16;;;30.19;45.07
59493;BME280;45497;43.996;22.876;2023-07-22T09:03:09;100951.59;;;30.41;44.18
59493;BME280;45497;43.996;22.876;2023-07-22T09:05:36;100957.28;;;30.45;44.34
59493;BME280;45497;43.996;22.876;2023-07-22T09:08:03;100963.25;;;30.28;44.08
59493;BME280;45497;43.996;22.876;2023-07-22T09:10:29;100971.34;;;30.38;44.01
59493;BME280;45497;43.996;22.876;2023-07-22T09:12:56;100955.72;;;30.58;43.38
59493;BME280;45497;43.996;22.876;2023-07-22T09:15:22;100960.19;;;30.67;43.78
59493;BME280;45497;43.996;22.876;2023-07-22T09:17:49;100956.56;;;30.72;43.68
59493;BME280;45497;43.996;22.876;2023-07-22T09:20:15;100961.66;;;30.46;44.16
59493;BME280;45497;43.996;22.876;2023-07-22T09:22:50;100943.44;;;30.55;44.39
59493;BME280;45497;43.996;22.876;2023-07-22T09:25:24;100925.63;;;30.58;43.93
59493;BME280;45497;43.996;22.876;2023-07-22T09:27:52;100935.88;;;30.66;44.41
59493;BME280;45497;43.996;22.876;2023-07-22T09:30:25;100931.63;;;30.74;44.02
59493;BME280;45497;43.996;22.876;2023-07-22T09:32:55;100942.47;;;30.79;43.49
59493;BME280;45497;43.996;22.876;2023-07-22T09:35:21;100935.72;;;30.90;43.67
59493;BME280;45497;43.996;22.876;2023-07-22T09:37:47;100936.81;;;31.08;43.62
59493;BME280;45497;43.996;22.876;2023-07-22T09:40:24;100944.09;;;31.27;43.24
59493;BME280;45497;43.996;22.876;2023-07-22T09:42:54;100928.88;;;31.06;43.21
59493;BME280;45497;43.996;22.876;2023-07-22T09:45:24;100936.69;;;31.27;43.28
59493;BME280;45497;43.996;22.876;2023-07-22T09:47:52;100931.53;;;31.12;43.17
59493;BME280;45497;43.996;22.876;2023-07-22T09:50:22;100925.00;;;31.08;43.77
59493;BME280;45497;43.996;22.876;2023-07-22T09:52:50;100929.28;;;31.41;43.44
59493;BME280;45497;43.996;22.876;2023-07-22T09:55:17;100928.97;;;31.43;43.44
59493;BME280;45497;43.996;22.876;2023-07-22T09:57:45;100917.00;;;31.25;43.04
59493;BME280;45497;43.996;22.876;2023-07-22T10:00:13;100920.78;;;31.15;43.22
59493;BME280;45497;43.996;22.876;2023-07-22T10:02:42;100923.53;;;31.15;42.99
59493;BME280;45497;43.996;22.876;2023-07-22T10:05:13;100913.03;;;31.31;43.20
59493;BME280;45497;43.996;22.876;2023-07-22T10:07:43;100922.06;;;31.45;42.73
59493;BME280;45497;43.996;22.876;2023-07-22T10:10:15;100922.69;;;31.29;42.93
59493;BME280;45497;43.996;22.876;2023-07-22T10:12:41;100908.19;;;31.14;42.79
59493;BME280;45497;43.996;22.876;2023-07-22T10:15:09;100919.84;;;31.06;43.49
59493;BME280;45497;43.996;22.876;2023-07-22T10:17:35;100927.28;;;31.33;43.17
59493;BME280;45497;43.996;22.876;2023-07-22T10:20:02;100919.66;;;31.16;42.91
59493;BME280;45497;43.996;22.876;2023-07-22T10:22:34;100917.00;;;31.25;43.50
59493;BME280;45497;43.996;22.876;2023-07-22T10:25:02;100916.31;;;31.33;43.47
59493;BME280;45497;43.996;22.876;2023-07-22T10:27:30;100915.91;;;31.26;43.21
59493;BME280;45497;43.996;22.876;2023-07-22T10:29:56;100919.06;;;31.33;43.04
59493;BME280;45497;43.996;22.876;2023-07-22T10:32:21;100909.31;;;31.41;43.20
59493;BME280;45497;43.996;22.876;2023-07-22T10:34:47;100915.22;;;31.48;43.17
59493;BME280;45497;43.996;22.876;2023-07-22T10:37:13;100922.59;;;31.20;43.64
59493;BME280;45497;43.996;22.876;2023-07-22T10:39:38;100907.59;;;31.17;43.28
59493;BME280;45497;43.996;22.876;2023-07-22T10:42:04;100913.25;;;30.93;43.54
59493;BME280;45497;43.996;22.876;2023-07-22T10:44:32;100909.00;;;31.29;43.20
59493;BME280;45497;43.996;22.876;2023-07-22T10:46:58;100905.34;;;31.61;43.28
59493;BME280;45497;43.996;22.876;2023-07-22T10:49:28;100914.38;;;31.61;42.83
59493;BME280;45497;43.996;22.876;2023-07-22T10:52:07;100898.66;;;31.53;43.09
59493;BME280;45497;43.996;22.876;2023-07-22T10:54:34;100902.03;;;31.73;43.06
59493;BME280;45497;43.996;22.876;2023-07-22T10:57:22;100900.16;;;31.59;42.86
59493;BME280;45497;43.996;22.876;2023-07-22T10:59:50;100908.13;;;31.83;42.03
59493;BME280;45497;43.996;22.876;2023-07-22T11:02:24;100885.16;;;31.93;42.28
59493;BME280;45497;43.996;22.876;2023-07-22T11:04:50;100901.06;;;32.05;42.10
59493;BME280;45497;43.996;22.876;2023-07-22T11:07:15;100894.47;;;32.06;41.34
59493;BME280;45497;43.996;22.876;2023-07-22T11:09:41;100891.44;;;31.94;40.59
59493;BME280;45497;43.996;22.876;2023-07-22T11:12:14;100889.19;;;32.10;40.91
59493;BME280;45497;43.996;22.876;2023-07-22T11:14:52;100887.69;;;31.90;40.66
59493;BME280;45497;43.996;22.876;2023-07-22T11:17:28;100891.91;;;31.73;41.55
59493;BME280;45497;43.996;22.876;2023-07-22T11:19:55;100887.13;;;32.01;41.30
59493;BME280;45497;43.996;22.876;2023-07-22T11:22:21;100893.16;;;32.49;40.60
59493;BME280;45497;43.996;22.876;2023-07-22T11:24:46;100889.00;;;32.83;40.57
59493;BME280;45497;43.996;22.876;2023-07-22T11:27:12;100897.06;;;32.88;39.98
59493;BME280;45497;43.996;22.876;2023-07-22T11:29:38;100903.63;;;32.47;40.53
59493;BME280;45497;43.996;22.876;2023-07-22T11:32:04;100891.78;;;32.37;40.13
59493;BME280;45497;43.996;22.876;2023-07-22T11:34:30;100889.09;;;32.46;40.39
59493;BME280;45497;43.996;22.876;2023-07-22T11:36:56;100886.34;;;32.46;40.47
59493;BME280;45497;43.996;22.876;2023-07-22T11:39:24;100892.00;;;32.50;40.17
59493;BME280;45497;43.996;22.876;2023-07-22T11:41:50;100895.03;;;32.62;40.02
59493;BME280;45497;43.996;22.876;2023-07-22T11:44:18;100899.63;;;32.75;40.00
59493;BME280;45497;43.996;22.876;2023-07-22T11:46:56;100906.41;;;32.55;40.55
59493;BME280;45497;43.996;22.876;2023-07-22T11:49:33;100900.13;;;32.55;39.99
59493;BME280;45497;43.996;22.876;2023-07-22T11:52:08;100898.25;;;32.64;40.30
59493;BME280;45497;43.996;22.876;2023-07-22T11:54:44;100893.78;;;32.68;40.18
59493;BME280;45497;43.996;22.876;2023-07-22T11:59:48;100894.38;;;32.96;39.75
59493;BME280;45497;43.996;22.876;2023-07-22T12:02:19;100891.66;;;32.65;39.69
59493;BME280;45497;43.996;22.876;2023-07-22T12:05:20;100880.81;;;32.60;39.97
59493;BME280;45497;43.996;22.876;2023-07-22T12:07:46;100881.28;;;32.62;39.72
59493;BME280;45497;43.996;22.876;2023-07-22T12:10:12;100876.47;;;32.68;39.41
59493;BME280;45497;43.996;22.876;2023-07-22T12:12:42;100886.25;;;32.83;38.62
59493;BME280;45497;43.996;22.876;2023-07-22T12:15:14;100876.88;;;32.84;39.07
59493;BME280;45497;43.996;22.876;2023-07-22T12:20:09;100886.63;;;32.36;39.16
59493;BME280;45497;43.996;22.876;2023-07-22T12:22:35;100891.28;;;32.35;39.12
59493;BME280;45497;43.996;22.876;2023-07-22T12:25:00;100879.88;;;32.42;39.39
59493;BME280;45497;43.996;22.876;2023-07-22T12:27:26;100891.78;;;32.15;39.50
59493;BME280;45497;43.996;22.876;2023-07-22T12:29:51;100886.38;;;32.24;38.90
59493;BME280;45497;43.996;22.876;2023-07-22T12:32:17;100888.63;;;32.22;38.97
59493;BME280;45497;43.996;22.876;2023-07-22T12:34:42;100878.56;;;32.39;39.42
59493;BME280;45497;43.996;22.876;2023-07-22T12:37:08;100872.25;;;32.62;38.62
59493;BME280;45497;43.996;22.876;2023-07-22T12:39:33;100881.03;;;32.72;38.44
59493;BME280;45497;43.996;22.876;2023-07-22T12:41:59;100869.63;;;32.56;37.91
59493;BME280;45497;43.996;22.876;2023-07-22T12:44:24;100879.78;;;32.56;38.06